EGVA

RAF Fairford Airport

Fairford, United Kingdom
METAR EGVA 280116Z AUTO 00000KT 4400 BR FEW007 15/14 A3002 RMK AO2 VIS 3600V5000 VIS 2800 RWY09 SLP167 $
Observed Flight Rules
May-28 @ 01:16 UTC (13 minutes ago) Instrument Flight Rules
Visibility Clouds Conditions
4,394 meters
  • Few at 700' AGL
  • Mist
Temperatures Readings
Current 15°C / 59°F
Dewpoint 14°C / 57°F
Humidity 94%
Altimeter 30.02" Hg
Pressure 1016.7 hPa
Elevation 87
METAR EGVA 280116Z AUTO 00000KT 4400 BR FEW007 15/14 A3002 RMK AO2 VIS 3600V5000 VIS 2800 RWY09 SLP167 $
Observed Flight Rules
May-28 @ 01:16 UTC
(13 minutes ago)
IFR
Clouds
  • Few at 700' AGL
Conditions
  • Mist
Temperature Dewpoint
15°C / 59°F 14°C / 57°F
Humidity Altimeter Pressure
94% 30.02" Hg 1016.7 hPa